createdAt,value
2023-03-26T00:01:39.859Z,68.01
2023-03-26T00:04:10.003Z,67.91
2023-03-26T00:06:39.245Z,67.77
2023-03-26T00:09:09.499Z,67.56
2023-03-26T00:11:36.843Z,67.50
2023-03-26T00:14:04.905Z,66.97
2023-03-26T00:16:31.952Z,66.31
2023-03-26T00:19:01.416Z,66.22
2023-03-26T00:21:30.328Z,65.86
2023-03-26T00:24:26.294Z,65.75
2023-03-26T00:27:02.287Z,65.59
2023-03-26T00:29:32.765Z,65.17
2023-03-26T00:31:59.772Z,65.08
2023-03-26T00:34:26.980Z,64.52
2023-03-26T00:36:54.337Z,64.13
2023-03-26T00:39:23.483Z,63.97
2023-03-26T00:41:53.804Z,63.63
2023-03-26T00:44:21.105Z,63.59
2023-03-26T00:46:48.928Z,63.52
2023-03-26T00:49:15.891Z,63.32
2023-03-26T00:51:42.965Z,63.02
2023-03-26T00:54:11.348Z,62.93
2023-03-26T00:56:38.675Z,62.92
2023-03-26T00:59:05.805Z,62.90
2023-03-26T01:01:33.158Z,62.82
2023-03-26T01:04:49.966Z,62.65
2023-03-26T01:07:21.322Z,62.31
2023-03-26T01:09:51.263Z,62.33
2023-03-26T01:12:21.800Z,61.92
2023-03-26T01:14:56.553Z,61.97
2023-03-26T01:17:34.562Z,62.06
2023-03-26T01:20:22.673Z,62.09
2023-03-26T01:22:55.861Z,61.88
2023-03-26T01:25:28.599Z,61.92
2023-03-26T01:27:56.164Z,61.97
2023-03-26T01:30:56.915Z,62.04
2023-03-26T01:33:36.864Z,62.07
2023-03-26T01:36:32.736Z,62.09
2023-03-26T01:39:20.958Z,62.12
2023-03-26T01:41:57.997Z,62.14
2023-03-26T01:44:39.072Z,62.11
2023-03-26T01:47:09.587Z,62.10
2023-03-26T01:49:36.859Z,62.17
2023-03-26T01:52:12.595Z,62.16
2023-03-26T01:54:40.911Z,62.13
2023-03-26T01:57:33.431Z,62.07
2023-03-26T02:00:17.646Z,61.98
2023-03-26T02:03:25.731Z,62.07
2023-03-26T02:06:16.011Z,62.14
2023-03-26T02:09:00.360Z,62.21
2023-03-26T02:11:35.296Z,62.30
2023-03-26T02:14:05.651Z,62.47
2023-03-26T02:16:32.866Z,62.66
2023-03-26T02:18:59.951Z,62.83
2023-03-26T02:21:27.966Z,63.04
2023-03-26T02:24:06.059Z,63.19
2023-03-26T02:26:37.214Z,63.28
2023-03-26T02:29:07.677Z,63.51
2023-03-26T02:31:36.350Z,63.65
2023-03-26T02:34:06.700Z,63.71
2023-03-26T02:36:36.022Z,63.94
2023-03-26T02:39:04.788Z,64.20
2023-03-26T02:41:34.967Z,64.50
2023-03-26T02:44:08.039Z,64.72
2023-03-26T02:46:53.816Z,64.76
2023-03-26T02:49:59.383Z,65.17
2023-03-26T02:52:49.407Z,65.69
2023-03-26T02:55:16.506Z,66.05
2023-03-26T02:57:45.132Z,65.92
2023-03-26T03:00:21.444Z,66.15
2023-03-26T03:03:04.030Z,66.58
2023-03-26T03:05:32.538Z,66.74
2023-03-26T03:08:23.649Z,66.86
2023-03-26T03:11:26.038Z,67.45
2023-03-26T03:13:53.922Z,67.49
2023-03-26T03:16:27.237Z,68.11
2023-03-26T03:18:57.571Z,68.66
2023-03-26T03:21:28.290Z,68.77
2023-03-26T03:24:00.002Z,68.56
2023-03-26T03:26:41.803Z,68.67
2023-03-26T03:29:24.791Z,68.87
2023-03-26T03:31:52.205Z,69.05
2023-03-26T03:34:42.289Z,69.08
2023-03-26T03:37:09.407Z,69.05
2023-03-26T03:39:44.185Z,68.91
2023-03-26T03:42:12.461Z,68.74
2023-03-26T03:44:39.749Z,68.95
2023-03-26T03:47:23.116Z,68.92
2023-03-26T03:49:50.706Z,68.89
2023-03-26T03:52:18.066Z,68.78
2023-03-26T03:54:46.003Z,68.70
2023-03-26T03:57:34.217Z,68.71
2023-03-26T04:00:07.620Z,68.72
2023-03-26T04:02:42.549Z,69.05
2023-03-26T04:05:11.446Z,69.60
2023-03-26T04:07:43.536Z,70.25
2023-03-26T04:10:46.799Z,70.41
2023-03-26T04:13:17.602Z,70.69
2023-03-26T04:16:08.867Z,71.01
2023-03-26T04:18:37.088Z,71.08
2023-03-26T04:21:12.016Z,70.86
2023-03-26T04:23:47.604Z,70.84
2023-03-26T04:26:49.538Z,71.31
2023-03-26T04:29:27.349Z,71.27
2023-03-26T04:32:08.422Z,70.85
2023-03-26T04:34:35.898Z,71.39
2023-03-26T04:37:26.346Z,71.63
2023-03-26T04:40:20.047Z,71.46
2023-03-26T04:43:21.766Z,71.20
2023-03-26T04:46:11.008Z,70.70
2023-03-26T04:48:45.176Z,70.77
2023-03-26T04:51:17.955Z,70.80
2023-03-26T04:53:57.845Z,70.70
2023-03-26T04:56:43.008Z,70.50
2023-03-26T04:59:36.552Z,70.31
2023-03-26T05:02:09.149Z,70.26
2023-03-26T05:04:50.618Z,69.99
2023-03-26T05:07:23.613Z,69.49
2023-03-26T05:09:53.628Z,69.41
2023-03-26T05:12:34.824Z,69.06
2023-03-26T05:15:10.963Z,68.46
2023-03-26T05:17:58.565Z,67.70
2023-03-26T05:20:30.663Z,67.00
2023-03-26T05:22:58.046Z,67.00
2023-03-26T05:25:39.401Z,66.75
2023-03-26T05:28:13.260Z,64.67
2023-03-26T05:31:01.309Z,63.20
2023-03-26T05:33:30.866Z,62.17
2023-03-26T05:36:30.456Z,61.63
2023-03-26T05:39:26.238Z,61.03
2023-03-26T05:42:16.245Z,59.52
2023-03-26T05:44:58.252Z,58.97
2023-03-26T05:47:27.557Z,58.29
2023-03-26T05:49:54.997Z,57.89
2023-03-26T05:52:22.261Z,56.98
2023-03-26T05:55:14.123Z,55.28
2023-03-26T05:58:03.251Z,54.86
2023-03-26T06:01:19.376Z,55.08
2023-03-26T06:04:13.209Z,55.27
2023-03-26T06:06:44.344Z,53.96
2023-03-26T06:09:12.868Z,53.71
2023-03-26T06:11:41.290Z,53.73
2023-03-26T06:14:08.666Z,52.93
2023-03-26T06:16:38.984Z,51.67
2023-03-26T06:19:38.300Z,50.00
2023-03-26T06:22:13.306Z,49.51
2023-03-26T06:25:18.478Z,49.52
2023-03-26T06:27:54.386Z,48.23
2023-03-26T06:30:40.349Z,47.06
2023-03-26T06:33:24.968Z,46.52
2023-03-26T06:35:52.630Z,46.07
2023-03-26T06:38:19.927Z,45.71
2023-03-26T06:40:47.186Z,44.98
2023-03-26T06:43:36.420Z,44.02
2023-03-26T06:46:16.481Z,43.40
2023-03-26T06:49:02.432Z,42.54
2023-03-26T06:52:24.363Z,41.57
2023-03-26T06:55:06.087Z,41.27
2023-03-26T06:58:03.761Z,40.99
2023-03-26T07:00:54.052Z,40.94
2023-03-26T07:03:40.012Z,40.85
2023-03-26T07:06:39.167Z,40.83
2023-03-26T07:09:25.792Z,39.43
2023-03-26T07:12:28.129Z,38.62
2023-03-26T07:15:17.115Z,38.00
2023-03-26T07:18:06.474Z,37.81
2023-03-26T07:20:36.127Z,36.88
2023-03-26T07:23:04.463Z,37.11
2023-03-26T07:26:22.633Z,37.68
2023-03-26T07:29:35.201Z,37.91
2023-03-26T07:32:49.473Z,37.86
2023-03-26T07:35:38.191Z,37.57
2023-03-26T07:38:50.396Z,37.22
2023-03-26T07:41:40.679Z,36.84
2023-03-26T07:44:41.036Z,36.44
2023-03-26T07:47:42.058Z,36.08
2023-03-26T07:50:38.866Z,36.34
2023-03-26T07:53:28.399Z,35.75
2023-03-26T07:56:18.456Z,35.29
2023-03-26T07:59:16.266Z,35.60
2023-03-26T08:02:17.562Z,35.36
2023-03-26T08:05:09.833Z,35.08
2023-03-26T08:08:14.463Z,35.17
2023-03-26T08:11:29.484Z,34.55
2023-03-26T08:14:13.853Z,33.95
2023-03-26T08:17:01.889Z,33.75
2023-03-26T08:19:40.284Z,33.77
2023-03-26T08:22:25.743Z,33.43
2023-03-26T08:24:56.701Z,33.26
2023-03-26T08:27:41.047Z,33.24
2023-03-26T08:30:07.992Z,33.24
2023-03-26T08:32:35.403Z,32.54
2023-03-26T08:35:03.883Z,32.79
2023-03-26T08:37:31.124Z,32.46
2023-03-26T08:39:58.162Z,32.47
2023-03-26T08:43:00.905Z,32.00
2023-03-26T08:45:44.038Z,31.00
2023-03-26T08:48:29.359Z,30.46
2023-03-26T08:51:14.793Z,30.05
2023-03-26T08:54:02.870Z,30.39
2023-03-26T08:56:53.300Z,30.67
2023-03-26T08:59:48.755Z,29.61
2023-03-26T09:02:33.500Z,29.25
2023-03-26T09:05:43.375Z,28.95
2023-03-26T09:08:32.405Z,28.73
2023-03-26T09:11:45.366Z,28.58
2023-03-26T09:14:30.144Z,26.96
2023-03-26T09:17:24.221Z,26.70
2023-03-26T09:20:19.479Z,26.95
2023-03-26T09:23:11.977Z,27.16
2023-03-26T09:26:03.574Z,26.92
2023-03-26T09:29:10.664Z,26.90
2023-03-26T09:32:05.031Z,26.95
2023-03-26T09:34:57.893Z,26.99
2023-03-26T09:37:57.447Z,27.20
2023-03-26T09:40:46.063Z,27.05
2023-03-26T09:43:36.174Z,26.99
2023-03-26T09:46:09.959Z,26.79
2023-03-26T09:49:22.359Z,26.79
2023-03-26T09:52:08.368Z,27.05
2023-03-26T09:54:48.106Z,27.01
2023-03-26T09:57:57.788Z,25.76
2023-03-26T10:00:46.696Z,25.69
2023-03-26T10:03:38.270Z,26.12
2023-03-26T10:06:34.601Z,26.08
2023-03-26T10:09:20.527Z,25.92
2023-03-26T10:12:23.703Z,25.65
2023-03-26T10:15:16.601Z,26.09
2023-03-26T10:18:00.280Z,26.32
2023-03-26T10:20:56.954Z,26.85
2023-03-26T10:23:47.724Z,26.77
2023-03-26T10:27:09.006Z,25.99
2023-03-26T10:29:51.489Z,25.57
2023-03-26T10:32:58.730Z,24.54
2023-03-26T10:35:51.949Z,24.97
2023-03-26T10:38:40.396Z,25.36
2023-03-26T10:41:18.004Z,24.95
2023-03-26T10:44:11.262Z,24.50
2023-03-26T10:46:52.455Z,24.15
2023-03-26T10:49:49.574Z,24.69
2023-03-26T10:52:49.891Z,23.81
2023-03-26T10:55:31.390Z,22.54
2023-03-26T10:58:24.529Z,22.58
2023-03-26T11:01:06.285Z,22.90
2023-03-26T11:03:51.591Z,22.37
2023-03-26T11:06:42.566Z,22.88
2023-03-26T11:09:37.394Z,23.65
2023-03-26T11:12:26.339Z,23.34
2023-03-26T11:15:15.160Z,22.73
2023-03-26T11:18:26.862Z,22.89
2023-03-26T11:21:19.834Z,23.48
2023-03-26T11:24:05.131Z,23.96
2023-03-26T11:26:56.860Z,23.27
2023-03-26T11:29:56.952Z,22.90
2023-03-26T11:32:34.173Z,22.83
2023-03-26T11:35:18.343Z,22.07
2023-03-26T11:38:32.461Z,22.49
2023-03-26T11:41:03.468Z,22.33
2023-03-26T11:44:00.362Z,21.51
2023-03-26T11:46:33.892Z,21.90
2023-03-26T11:49:15.531Z,22.15
2023-03-26T11:51:46.876Z,22.41
2023-03-26T11:54:15.914Z,22.73
2023-03-26T11:57:05.914Z,23.20
2023-03-26T11:59:57.241Z,23.29
2023-03-26T12:02:37.200Z,23.70
2023-03-26T12:05:26.881Z,23.58
2023-03-26T12:07:59.796Z,22.88
2023-03-26T12:10:40.067Z,22.81
2023-03-26T12:13:43.046Z,23.44
2023-03-26T12:16:38.349Z,23.46
2023-03-26T12:19:21.941Z,23.89
2023-03-26T12:21:51.626Z,23.73
2023-03-26T12:25:09.129Z,23.28
2023-03-26T12:28:02.848Z,22.71
2023-03-26T12:30:44.743Z,22.68
2023-03-26T12:33:39.016Z,22.78
2023-03-26T12:36:19.446Z,23.14
2023-03-26T12:38:46.487Z,22.43
2023-03-26T12:43:19.840Z,22.29
2023-03-26T12:44:54.131Z,22.53
2023-03-26T12:48:00.460Z,23.29
2023-03-26T12:50:15.884Z,24.19
2023-03-26T12:53:05.647Z,24.17
2023-03-26T12:55:36.241Z,24.11
2023-03-26T12:58:23.647Z,24.55
2023-03-26T13:01:22.767Z,24.82
2023-03-26T13:04:11.149Z,25.36
2023-03-26T13:07:00.681Z,24.94
2023-03-26T13:09:44.405Z,24.90
2023-03-26T13:12:17.568Z,24.97
2023-03-26T13:14:55.817Z,25.12
2023-03-26T13:17:31.914Z,25.57
2023-03-26T13:20:01.962Z,25.60
2023-03-26T13:23:18.206Z,25.08
2023-03-26T13:26:24.296Z,24.99
2023-03-26T13:29:20.075Z,24.78
2023-03-26T13:32:23.172Z,24.31
2023-03-26T13:35:18.501Z,24.01
2023-03-26T13:37:54.558Z,24.26
2023-03-26T13:40:35.841Z,23.78
2023-03-26T13:43:20.640Z,24.07
2023-03-26T13:46:23.619Z,23.96
2023-03-26T13:48:57.796Z,23.82
2023-03-26T13:51:27.027Z,24.14
2023-03-26T13:54:04.791Z,24.21
2023-03-26T13:56:47.280Z,23.98
2023-03-26T13:59:14.085Z,24.05
2023-03-26T14:02:05.709Z,23.86
2023-03-26T14:04:47.078Z,23.99
2023-03-26T14:07:20.441Z,23.89
2023-03-26T14:09:57.334Z,24.14
2023-03-26T14:12:51.774Z,24.30
2023-03-26T14:15:22.634Z,23.87
2023-03-26T14:17:52.914Z,23.97
2023-03-26T14:20:58.883Z,24.14
2023-03-26T14:23:56.764Z,24.25
2023-03-26T14:26:48.611Z,24.27
2023-03-26T14:29:29.692Z,24.70
2023-03-26T14:32:24.529Z,24.37
2023-03-26T14:35:04.343Z,24.18
2023-03-26T14:38:14.392Z,23.76
2023-03-26T14:41:10.006Z,24.20
2023-03-26T14:44:10.583Z,23.68
2023-03-26T14:46:49.772Z,23.91
2023-03-26T14:49:22.863Z,24.12
2023-03-26T14:52:20.102Z,24.81
2023-03-26T14:54:52.276Z,25.19
2023-03-26T14:57:46.902Z,25.63
2023-03-26T15:01:03.899Z,26.35
2023-03-26T15:04:05.692Z,27.61
2023-03-26T15:06:50.807Z,28.31
2023-03-26T15:09:45.755Z,29.16
2023-03-26T15:12:15.779Z,30.06
2023-03-26T15:15:16.226Z,30.72
2023-03-26T15:18:05.991Z,31.31
2023-03-26T15:20:55.788Z,32.09
2023-03-26T15:24:19.602Z,32.64
2023-03-26T15:27:11.667Z,33.33
2023-03-26T15:30:20.373Z,33.41
2023-03-26T15:33:19.611Z,33.15
2023-03-26T15:36:14.359Z,32.50
2023-03-26T15:38:42.120Z,32.00
2023-03-26T15:41:45.940Z,32.02
2023-03-26T15:48:38.161Z,31.77
2023-03-26T15:51:21.718Z,31.82
2023-03-26T15:54:07.906Z,32.32
2023-03-26T15:56:48.605Z,32.74
2023-03-26T15:59:41.386Z,33.21
2023-03-26T16:02:38.521Z,34.08
2023-03-26T16:05:36.731Z,34.58
2023-03-26T16:08:38.716Z,35.28
2023-03-26T16:11:12.951Z,36.00
2023-03-26T16:14:02.512Z,36.43
2023-03-26T16:17:38.080Z,36.78
2023-03-26T16:22:03.529Z,37.45
2023-03-26T16:28:08.994Z,38.67
2023-03-26T16:30:45.789Z,38.91
2023-03-26T16:52:36.930Z,42.35
2023-03-26T17:19:30.052Z,45.18
2023-03-26T18:02:00.724Z,51.14
2023-03-26T18:04:39.176Z,51.05
2023-03-26T18:22:11.706Z,53.74
2023-03-26T18:26:01.920Z,53.61
2023-03-26T18:28:34.505Z,54.24
2023-03-26T18:32:30.686Z,54.39
2023-03-26T19:13:19.866Z,58.82
2023-03-26T19:16:43.123Z,59.92
2023-03-26T20:22:41.024Z,66.44
2023-03-26T20:26:27.439Z,66.38
2023-03-26T20:38:39.120Z,66.49
2023-03-26T21:04:47.318Z,68.17
2023-03-26T21:07:23.099Z,68.72
2023-03-26T21:13:05.245Z,69.13
2023-03-26T21:15:33.284Z,68.72
2023-03-26T21:18:00.626Z,68.51
2023-03-26T21:20:28.286Z,68.63
2023-03-26T21:23:15.801Z,68.43
2023-03-26T21:26:01.166Z,68.78
2023-03-26T21:28:41.992Z,68.89
2023-03-26T21:31:17.948Z,69.41
2023-03-26T21:33:46.077Z,68.98
2023-03-26T21:36:14.671Z,69.18
2023-03-26T21:38:43.115Z,69.60
2023-03-26T21:42:04.889Z,69.85
2023-03-26T21:44:36.501Z,70.64
2023-03-26T21:47:03.959Z,70.94
2023-03-26T21:49:34.634Z,72.18
2023-03-26T21:52:02.312Z,72.12
2023-03-26T21:54:31.650Z,71.35
2023-03-26T21:58:00.853Z,70.99
2023-03-26T22:01:02.320Z,72.68
2023-03-26T22:03:37.328Z,72.46
2023-03-26T22:06:17.126Z,72.14
2023-03-26T22:08:44.405Z,71.97
2023-03-26T22:11:12.510Z,71.95
2023-03-26T22:13:39.674Z,71.78
2023-03-26T22:16:08.909Z,71.68
2023-03-26T22:18:36.340Z,71.39
2023-03-26T22:21:04.064Z,71.62
2023-03-26T22:23:35.536Z,71.54
2023-03-26T22:26:04.600Z,71.67
2023-03-26T22:28:31.720Z,72.20
2023-03-26T22:30:59.156Z,72.49
2023-03-26T22:33:26.492Z,73.03
2023-03-26T22:35:55.595Z,72.90
2023-03-26T22:38:23.380Z,72.77
2023-03-26T22:40:56.595Z,72.90
2023-03-26T22:43:23.980Z,73.31
2023-03-26T22:45:53.071Z,73.49
2023-03-26T22:48:22.898Z,73.37
2023-03-26T22:51:07.568Z,73.82
2023-03-26T22:53:35.563Z,74.49
2023-03-26T22:56:03.606Z,74.27
2023-03-26T22:58:32.450Z,74.94
2023-03-26T23:01:17.335Z,76.51
2023-03-26T23:03:46.113Z,75.96
2023-03-26T23:06:13.663Z,75.43
2023-03-26T23:08:41.513Z,75.01
2023-03-26T23:11:16.416Z,74.67
2023-03-26T23:13:52.662Z,74.46
2023-03-26T23:16:20.943Z,74.26
2023-03-26T23:18:48.035Z,74.30
2023-03-26T23:21:17.702Z,74.85
2023-03-26T23:23:46.419Z,75.31
2023-03-26T23:26:14.404Z,75.36
2023-03-26T23:28:47.046Z,75.12
2023-03-26T23:31:17.085Z,74.86
2023-03-26T23:33:46.959Z,75.22
2023-03-26T23:36:17.348Z,75.32
2023-03-26T23:38:48.664Z,75.15
2023-03-26T23:41:20.776Z,75.76
2023-03-26T23:43:58.766Z,75.48
2023-03-26T23:46:34.107Z,76.07
2023-03-26T23:49:04.432Z,75.77
2023-03-26T23:51:32.487Z,75.75
2023-03-26T23:54:00.883Z,75.67
2023-03-26T23:56:29.212Z,75.59
2023-03-26T23:58:56.187Z,75.72
